createdAt,value
2017-10-02T01:37:29.446Z,0
2017-10-02T04:50:22.548Z,2
2017-10-02T04:59:30.795Z,5
2017-10-02T05:03:03.571Z,8
2017-10-02T05:05:05.345Z,10
2017-10-02T05:06:06.214Z,13
2017-10-02T05:07:07.167Z,15
2017-10-02T05:08:07.831Z,17
2017-10-02T05:09:08.817Z,20
2017-10-02T05:09:39.685Z,22
2017-10-02T05:10:09.721Z,25
2017-10-02T05:10:40.528Z,28
2017-10-02T05:11:10.618Z,32
2017-10-02T05:11:41.491Z,35
2017-10-02T05:12:11.495Z,40
2017-10-02T05:12:42.362Z,45
2017-10-02T05:13:12.463Z,52
2017-10-02T05:13:43.329Z,58
2017-10-02T05:14:13.369Z,62
2017-10-02T05:14:44.254Z,70
2017-10-02T05:15:14.249Z,77
2017-10-02T05:15:45.104Z,85
2017-10-02T05:16:15.228Z,90
2017-10-02T05:16:46.107Z,98
2017-10-02T05:17:16.159Z,105
2017-10-02T05:17:46.952Z,112
2017-10-02T05:18:16.990Z,118
2017-10-02T05:18:47.903Z,125
2017-10-02T05:19:17.947Z,130
2017-10-02T05:19:48.863Z,137
2017-10-02T05:20:18.874Z,142
2017-10-02T05:20:49.712Z,152
2017-10-02T05:21:19.725Z,160
2017-10-02T05:21:50.660Z,172
2017-10-02T05:22:20.697Z,185
2017-10-02T05:22:51.570Z,200
2017-10-02T05:23:21.551Z,218
2017-10-02T05:23:52.486Z,230
2017-10-02T05:24:22.508Z,242
2017-10-02T05:24:53.393Z,250
2017-10-02T05:25:23.434Z,253
2017-10-02T05:25:54.263Z,250
2017-10-02T05:26:24.361Z,240
2017-10-02T05:26:55.244Z,225
2017-10-02T05:27:25.244Z,210
2017-10-02T05:27:56.087Z,193
2017-10-02T05:28:26.132Z,178
2017-10-02T05:28:57.063Z,165
2017-10-02T05:29:27.087Z,160
2017-10-02T05:29:58.021Z,150
2017-10-02T05:30:28.029Z,145
2017-10-02T05:30:58.860Z,137
2017-10-02T05:31:28.873Z,133
2017-10-02T05:31:59.758Z,130
2017-10-02T05:34:01.623Z,133
2017-10-02T05:34:31.612Z,135
2017-10-02T05:35:02.548Z,137
2017-10-02T05:35:32.598Z,140
2017-10-02T05:36:03.471Z,145
2017-10-02T05:36:33.479Z,150
2017-10-02T05:37:04.325Z,152
2017-10-02T05:37:34.421Z,158
2017-10-02T05:38:05.266Z,160
2017-10-02T05:38:35.259Z,163
2017-10-02T05:39:06.163Z,167
2017-10-02T05:39:36.225Z,170
2017-10-02T05:40:07.109Z,175
2017-10-02T05:40:37.148Z,178
2017-10-02T05:41:07.972Z,180
2017-10-02T05:41:38.004Z,185
2017-10-02T05:42:08.932Z,190
2017-10-02T05:42:38.981Z,195
2017-10-02T05:43:09.782Z,202
2017-10-02T05:43:39.821Z,210
2017-10-02T05:44:10.716Z,218
2017-10-02T05:44:40.734Z,227
2017-10-02T05:45:11.711Z,235
2017-10-02T05:45:41.679Z,245
2017-10-02T05:46:12.589Z,253
2017-10-02T05:46:42.593Z,262
2017-10-02T05:47:13.518Z,272
2017-10-02T05:47:43.545Z,283
2017-10-02T05:48:14.391Z,293
2017-10-02T05:48:44.433Z,302
2017-10-02T05:49:15.315Z,315
2017-10-02T05:49:45.356Z,325
2017-10-02T05:50:16.240Z,335
2017-10-02T05:50:46.240Z,345
2017-10-02T05:51:17.101Z,358
2017-10-02T05:51:47.095Z,365
2017-10-02T05:52:18.033Z,373
2017-10-02T05:52:48.565Z,383
2017-10-02T05:53:18.950Z,395
2017-10-02T05:53:49.031Z,400
2017-10-02T05:54:19.820Z,410
2017-10-02T05:54:49.853Z,418
2017-10-02T05:55:20.779Z,422
2017-10-02T05:55:50.769Z,430
2017-10-02T05:56:21.703Z,435
2017-10-02T05:56:51.702Z,440
2017-10-02T05:57:22.547Z,442
2017-10-02T05:57:52.637Z,445
2017-10-02T05:58:53.521Z,448
2017-10-02T05:59:24.414Z,450
2017-10-02T05:59:54.435Z,455
2017-10-02T06:00:25.304Z,460
2017-10-02T06:00:55.369Z,465
2017-10-02T06:01:26.219Z,470
2017-10-02T06:01:56.225Z,478
2017-10-02T06:02:27.135Z,485
2017-10-02T06:02:57.229Z,493
2017-10-02T06:03:28.046Z,503
2017-10-02T06:03:58.076Z,508
2017-10-02T06:04:28.913Z,510
2017-10-02T06:04:58.992Z,505
2017-10-02T06:05:29.880Z,497
2017-10-02T06:05:59.868Z,485
2017-10-02T06:06:30.761Z,478
2017-10-02T06:07:00.762Z,473
2017-10-02T06:07:31.652Z,463
2017-10-02T06:08:01.829Z,458
2017-10-02T06:08:32.623Z,455
2017-10-02T06:09:33.608Z,460
2017-10-02T06:10:03.608Z,470
2017-10-02T06:10:34.418Z,480
2017-10-02T06:11:04.459Z,497
2017-10-02T06:11:35.405Z,512
2017-10-02T06:12:05.419Z,530
2017-10-02T06:12:36.232Z,542
2017-10-02T06:13:06.331Z,555
2017-10-02T06:13:37.138Z,562
2017-10-02T06:14:07.232Z,568
2017-10-02T06:14:38.063Z,570
2017-10-02T06:15:08.112Z,568
2017-10-02T06:16:39.919Z,570
2017-10-02T06:17:09.972Z,572
2017-10-02T06:18:10.879Z,575
2017-10-02T06:18:41.735Z,578
2017-10-02T06:19:11.902Z,585
2017-10-02T06:19:42.666Z,590
2017-10-02T06:20:12.706Z,595
2017-10-02T06:20:43.544Z,598
2017-10-02T06:21:13.619Z,602
2017-10-02T06:21:44.490Z,608
2017-10-02T06:22:14.518Z,620
2017-10-02T06:22:45.394Z,635
2017-10-02T06:23:15.452Z,647
2017-10-02T06:23:46.311Z,660
2017-10-02T06:24:16.361Z,673
2017-10-02T06:24:47.191Z,685
2017-10-02T06:25:17.295Z,698
2017-10-02T06:25:48.128Z,710
2017-10-02T06:26:18.184Z,722
2017-10-02T06:26:49.075Z,735
2017-10-02T06:27:19.110Z,742
2017-10-02T06:27:49.932Z,752
2017-10-02T06:28:20.057Z,763
2017-10-02T06:28:50.857Z,782
2017-10-02T06:29:20.872Z,808
2017-10-02T06:29:51.843Z,845
2017-10-02T06:30:21.847Z,890
2017-10-02T06:30:52.680Z,945
2017-10-02T06:31:22.804Z,990
2017-10-02T06:31:53.648Z,1042
2017-10-02T06:32:23.655Z,1093
2017-10-02T06:32:54.557Z,1142
2017-10-02T06:33:24.627Z,1185
2017-10-02T06:33:55.461Z,1225
2017-10-02T06:34:25.502Z,1255
2017-10-02T06:34:56.377Z,1280
2017-10-02T06:35:26.410Z,1298
2017-10-02T06:35:57.277Z,1315
2017-10-02T06:36:27.293Z,1322
2017-10-02T06:36:58.195Z,1337
2017-10-02T06:37:28.184Z,1355
2017-10-02T06:37:59.089Z,1382
2017-10-02T06:38:29.203Z,1412
2017-10-02T06:39:00.011Z,1442
2017-10-02T06:39:30.049Z,1472
2017-10-02T06:40:00.913Z,1498
2017-10-02T06:40:30.974Z,1525
2017-10-02T06:41:01.821Z,1547
2017-10-02T06:41:31.841Z,1565
2017-10-02T06:42:02.757Z,1577
2017-10-02T06:42:32.824Z,1595
2017-10-02T06:43:03.690Z,1610
2017-10-02T06:43:33.800Z,1630
2017-10-02T06:44:04.590Z,1650
2017-10-02T06:44:34.602Z,1675
2017-10-02T06:45:05.475Z,1703
2017-10-02T06:45:35.558Z,1723
2017-10-02T06:46:06.418Z,1738
2017-10-02T06:46:36.464Z,1745
2017-10-02T06:47:07.341Z,1742
2017-10-02T06:47:37.372Z,1733
2017-10-02T06:48:08.246Z,1720
2017-10-02T06:48:38.356Z,1697
2017-10-02T06:49:09.154Z,1670
2017-10-02T06:49:39.155Z,1637
2017-10-02T06:50:10.092Z,1612
2017-10-02T06:50:40.126Z,1583
2017-10-02T06:51:10.982Z,1550
2017-10-02T06:51:41.031Z,1522
2017-10-02T06:52:11.943Z,1495
2017-10-02T06:52:41.941Z,1468
2017-10-02T06:53:12.835Z,1460
2017-10-02T06:53:43.105Z,1455
2017-10-02T06:54:13.702Z,1450
2017-10-02T06:54:43.724Z,1442
2017-10-02T06:55:14.621Z,1445
2017-10-02T06:55:44.709Z,1442
2017-10-02T06:56:45.634Z,1450
2017-10-02T06:57:16.463Z,1455
2017-10-02T06:57:46.505Z,1470
2017-10-02T06:58:17.406Z,1493
2017-10-02T06:58:49.047Z,1520
2017-10-02T06:59:18.311Z,1545
2017-10-02T06:59:48.386Z,1565
2017-10-02T07:00:19.243Z,1592
2017-10-02T07:00:49.309Z,1600
2017-10-02T07:01:20.153Z,1615
2017-10-02T07:01:50.192Z,1622
2017-10-02T07:02:21.095Z,1630
2017-10-02T07:02:51.074Z,1642
2017-10-02T07:03:22.004Z,1660
2017-10-02T07:03:52.113Z,1687
2017-10-02T07:04:22.876Z,1720
2017-10-02T07:04:52.910Z,1738
2017-10-02T07:05:23.756Z,1760
2017-10-02T07:05:53.853Z,1790
2017-10-02T07:06:24.754Z,1817
2017-10-02T07:06:54.790Z,1845
2017-10-02T07:07:25.668Z,1880
2017-10-02T07:07:55.652Z,1895
2017-10-02T07:08:26.516Z,1922
2017-10-02T07:08:56.664Z,1963
2017-10-02T07:09:27.546Z,2000
2017-10-02T07:09:57.493Z,2038
2017-10-02T07:10:28.372Z,2075
2017-10-02T07:10:58.440Z,2115
2017-10-02T07:11:29.251Z,2155
2017-10-02T07:11:59.308Z,2210
2017-10-02T07:12:30.202Z,2252
2017-10-02T07:13:00.249Z,2320
2017-10-02T07:13:31.111Z,2405
2017-10-02T07:14:01.221Z,2473
2017-10-02T07:14:31.988Z,2560
2017-10-02T07:15:02.042Z,2645
2017-10-02T07:15:32.961Z,2710
2017-10-02T07:16:03.943Z,2758
2017-10-02T07:16:33.873Z,2803
2017-10-02T07:17:03.881Z,2840
2017-10-02T07:17:34.747Z,2882
2017-10-02T07:18:04.849Z,2897
2017-10-02T07:18:35.758Z,2887
2017-10-02T07:19:05.802Z,2850
2017-10-02T07:19:36.647Z,2775
2017-10-02T07:20:06.662Z,2683
2017-10-02T07:20:37.567Z,2617
2017-10-02T07:21:07.657Z,2560
2017-10-02T07:21:38.478Z,2488
2017-10-02T07:22:08.487Z,2415
2017-10-02T07:22:39.383Z,2347
2017-10-02T07:23:09.355Z,2242
2017-10-02T07:23:40.317Z,2130
2017-10-02T07:24:10.467Z,2040
2017-10-02T07:24:41.196Z,1955
2017-10-02T07:25:11.201Z,1880
2017-10-02T07:25:42.142Z,1825
2017-10-02T07:26:12.161Z,1805
2017-10-02T07:26:43.059Z,1810
2017-10-02T07:27:13.061Z,1800
2017-10-02T07:27:43.920Z,1792
2017-10-02T07:28:13.960Z,1753
2017-10-02T07:28:44.886Z,1742
2017-10-02T07:29:14.947Z,1760
2017-10-02T07:29:45.769Z,1795
2017-10-02T07:30:15.784Z,1838
2017-10-02T07:30:46.655Z,1868
2017-10-02T07:31:16.691Z,1870
2017-10-02T07:31:47.622Z,1802
2017-10-02T07:32:17.666Z,1760
2017-10-02T07:32:48.553Z,1750
2017-10-02T07:33:18.581Z,1760
2017-10-02T07:33:49.463Z,1755
2017-10-02T07:34:19.461Z,1753
2017-10-02T07:34:50.345Z,1785
2017-10-02T07:35:20.361Z,1862
2017-10-02T07:35:51.295Z,1980
2017-10-02T07:36:21.316Z,2072
2017-10-02T07:36:52.185Z,2145
2017-10-02T07:37:22.167Z,2185
2017-10-02T07:37:53.038Z,2197
2017-10-02T07:38:23.062Z,2213
2017-10-02T07:38:54.002Z,2197
2017-10-02T07:39:24.262Z,2195
2017-10-02T07:39:54.962Z,2173
2017-10-02T07:40:24.959Z,2135
2017-10-02T07:40:55.827Z,2108
2017-10-02T07:41:25.866Z,2087
2017-10-02T07:41:56.793Z,2153
2017-10-02T07:42:26.804Z,2225
2017-10-02T07:42:57.662Z,2273
2017-10-02T07:43:27.725Z,2278
2017-10-02T07:43:58.589Z,2237
2017-10-02T07:44:28.666Z,2130
2017-10-02T07:44:59.488Z,1955
2017-10-02T07:45:29.495Z,1785
2017-10-02T07:46:00.659Z,1663
2017-10-02T07:46:30.472Z,1607
2017-10-02T07:47:01.337Z,1600
2017-10-02T07:48:02.228Z,1595
2017-10-02T07:48:32.221Z,1560
2017-10-02T07:49:03.167Z,1463
2017-10-02T07:49:33.262Z,1333
2017-10-02T07:50:04.112Z,1250
2017-10-02T07:50:34.164Z,1220
2017-10-02T07:51:05.016Z,1230
2017-10-02T07:51:35.028Z,1265
2017-10-02T07:52:05.987Z,1350
2017-10-02T07:52:35.983Z,1493
2017-10-02T07:53:06.885Z,1755
2017-10-02T07:53:36.902Z,2092
2017-10-02T07:54:07.745Z,2370
2017-10-02T07:54:38.311Z,2520
2017-10-02T07:55:08.710Z,2617
2017-10-02T07:55:38.795Z,2685
2017-10-02T07:56:09.633Z,2740
2017-10-02T07:56:39.612Z,2810
2017-10-02T07:57:10.497Z,2803
2017-10-02T07:57:40.523Z,2710
2017-10-02T07:58:11.408Z,2662
2017-10-02T07:59:12.324Z,2672
2017-10-02T07:59:42.520Z,2720
2017-10-02T08:00:13.306Z,2767
2017-10-02T08:00:43.317Z,2830
2017-10-02T08:01:14.151Z,2833
2017-10-02T08:01:44.196Z,2810
2017-10-02T08:02:15.120Z,2805
2017-10-02T08:02:45.158Z,2800
2017-10-02T08:03:16.034Z,2755
2017-10-02T08:03:46.070Z,2627
2017-10-02T08:04:16.902Z,2477
2017-10-02T08:04:46.996Z,2355
2017-10-02T08:05:17.860Z,2228
2017-10-02T08:05:47.926Z,2115
2017-10-02T08:06:18.776Z,2032
2017-10-02T08:06:48.847Z,1960
2017-10-02T08:07:19.657Z,1918
2017-10-02T08:07:49.689Z,1942
2017-10-02T08:08:20.566Z,1960
2017-10-02T08:08:50.649Z,1918
2017-10-02T08:09:21.484Z,1907
2017-10-02T08:09:51.610Z,1960
2017-10-02T08:10:22.463Z,2020
2017-10-02T08:10:52.477Z,2063
2017-10-02T08:11:23.368Z,2108
2017-10-02T08:11:53.339Z,2087
2017-10-02T08:12:24.249Z,2040
2017-10-02T08:12:54.309Z,2038
2017-10-02T08:13:25.173Z,2030
2017-10-02T08:13:55.227Z,2042
2017-10-02T08:14:26.042Z,2012
2017-10-02T08:14:56.142Z,1900
2017-10-02T08:15:27.021Z,1838
2017-10-02T08:15:57.046Z,1850
2017-10-02T08:16:27.941Z,1868
2017-10-02T08:16:57.960Z,1860
2017-10-02T08:17:28.811Z,1852
2017-10-02T08:17:58.826Z,1802
2017-10-02T08:18:29.776Z,1778
2017-10-02T08:18:59.805Z,1770
2017-10-02T08:19:30.659Z,1762
2017-10-02T08:20:00.771Z,1757
2017-10-02T08:20:31.617Z,1768
2017-10-02T08:21:01.648Z,1785
2017-10-02T08:21:32.512Z,1787
2017-10-02T08:22:02.553Z,1783
2017-10-02T08:22:33.450Z,1790
2017-10-02T08:23:34.365Z,1792
2017-10-02T08:24:04.370Z,1808
2017-10-02T08:24:35.221Z,1817
2017-10-02T08:25:05.303Z,1820
2017-10-02T08:25:36.157Z,1825
2017-10-02T08:26:06.258Z,1838
2017-10-02T08:26:37.125Z,1862
2017-10-02T08:27:07.135Z,1890
2017-10-02T08:27:37.971Z,1910
2017-10-02T08:28:08.017Z,1920
2017-10-02T08:29:08.944Z,1915
2017-10-02T08:29:39.823Z,1907
2017-10-02T08:30:09.959Z,1895
2017-10-02T08:30:40.767Z,1890
2017-10-02T08:31:10.771Z,1905
2017-10-02T08:31:41.723Z,1933
2017-10-02T08:32:11.739Z,1952
2017-10-02T08:32:42.635Z,1963
2017-10-02T08:33:12.645Z,1990
2017-10-02T08:33:43.566Z,2012
2017-10-02T08:34:13.551Z,2032
2017-10-02T08:34:44.468Z,2063
2017-10-02T08:35:14.500Z,2110
2017-10-02T08:35:45.380Z,2175
2017-10-02T08:36:15.378Z,2252
2017-10-02T08:36:46.355Z,2362
2017-10-02T08:37:16.269Z,2467
2017-10-02T08:37:47.180Z,2560
2017-10-02T08:38:17.184Z,2623
2017-10-02T08:38:48.117Z,2648
2017-10-02T08:39:18.168Z,2633
2017-10-02T08:39:49.011Z,2582
2017-10-02T08:40:19.112Z,2540
2017-10-02T08:40:49.911Z,2507
2017-10-02T08:41:19.926Z,2500
2017-10-02T08:41:50.808Z,2458
2017-10-02T08:42:20.911Z,2402
2017-10-02T08:42:51.725Z,2312
2017-10-02T08:43:21.799Z,2225
2017-10-02T08:43:52.664Z,2143
2017-10-02T08:44:22.673Z,2098
2017-10-02T08:44:53.618Z,2095
2017-10-02T08:45:23.711Z,2147
2017-10-02T08:45:54.494Z,2260
2017-10-02T08:46:24.505Z,2400
2017-10-02T08:46:55.451Z,2552
2017-10-02T08:47:25.419Z,2683
2017-10-02T08:47:56.343Z,2800
2017-10-02T08:48:26.396Z,2900
2017-10-02T08:48:57.278Z,2987
2017-10-02T08:49:27.305Z,3060
2017-10-02T08:49:57.379Z,3125
2017-10-02T08:50:27.574Z,3215
2017-10-02T08:50:58.265Z,3335
2017-10-02T08:51:28.705Z,3485
2017-10-02T08:51:59.594Z,3670
2017-10-02T08:52:29.630Z,3823
2017-10-02T08:53:00.703Z,3955
2017-10-02T08:53:30.501Z,4060
2017-10-02T08:54:01.433Z,4147
2017-10-02T08:54:31.406Z,4235
2017-10-02T08:55:02.256Z,4290
2017-10-02T08:55:32.461Z,4312
2017-10-02T08:56:03.220Z,4367
2017-10-02T08:56:33.287Z,4535
2017-10-02T08:57:04.080Z,4680
2017-10-02T08:57:34.295Z,4835
2017-10-02T08:58:04.989Z,4990
2017-10-02T08:58:35.075Z,5120
2017-10-02T08:59:05.927Z,5230
2017-10-02T08:59:36.018Z,5233
2017-10-02T09:00:06.257Z,5293
2017-10-02T09:00:36.273Z,5432
2017-10-02T09:01:06.534Z,5618
2017-10-02T09:01:36.620Z,5865
2017-10-02T09:02:06.624Z,6085
2017-10-02T09:02:36.642Z,6250
2017-10-02T09:03:06.867Z,6377
2017-10-02T09:03:36.892Z,6467
2017-10-02T09:04:06.858Z,6478
2017-10-02T09:04:36.907Z,6493
2017-10-02T09:05:06.922Z,6425
2017-10-02T09:05:37.064Z,6305
2017-10-02T09:06:06.986Z,6165
2017-10-02T09:06:37.074Z,5950
2017-10-02T09:07:07.099Z,5905
2017-10-02T09:07:37.161Z,5855
2017-10-02T09:08:07.197Z,5717
2017-10-02T09:08:37.240Z,5503
2017-10-02T09:09:07.280Z,5243
2017-10-02T09:09:37.306Z,5005
2017-10-02T09:10:07.363Z,4793
2017-10-02T09:10:37.466Z,4625
2017-10-02T09:11:07.414Z,4493
2017-10-02T09:11:37.453Z,4360
2017-10-02T09:12:07.519Z,4283
2017-10-02T09:12:37.508Z,4208
2017-10-02T09:13:07.519Z,4168
2017-10-02T09:13:37.613Z,4160
2017-10-02T09:14:07.631Z,4142
2017-10-02T09:14:37.630Z,4145
2017-10-02T09:15:07.652Z,4133
2017-10-02T09:15:37.740Z,4120
2017-10-02T09:16:07.714Z,4085
2017-10-02T09:16:37.735Z,4052
2017-10-02T09:17:07.771Z,3998
2017-10-02T09:17:37.812Z,3910
2017-10-02T09:18:07.841Z,3797
2017-10-02T09:18:37.874Z,3695
2017-10-02T09:19:07.944Z,3625
2017-10-02T09:19:37.938Z,3557
2017-10-02T09:20:07.975Z,3540
2017-10-02T09:20:38.074Z,3550
2017-10-02T09:21:08.057Z,3557
2017-10-02T09:21:38.093Z,3542
2017-10-02T09:22:08.138Z,3508
2017-10-02T09:22:38.200Z,3472
2017-10-02T09:23:08.223Z,3467
2017-10-02T09:23:38.302Z,3497
2017-10-02T09:24:08.260Z,3608
2017-10-02T09:24:38.286Z,3790
2017-10-02T09:25:08.370Z,4012
2017-10-02T09:25:38.420Z,4205
2017-10-02T09:26:08.412Z,4380
2017-10-02T09:26:38.489Z,4477
2017-10-02T09:27:08.494Z,4483
2017-10-02T09:27:38.556Z,4397
2017-10-02T09:28:08.575Z,4312
2017-10-02T09:28:38.597Z,4245
2017-10-02T09:29:08.635Z,4243
2017-10-02T09:29:38.684Z,4357
2017-10-02T09:30:08.693Z,4500
2017-10-02T09:30:38.837Z,4655
2017-10-02T09:31:08.756Z,4832
2017-10-02T09:31:38.791Z,4940
2017-10-02T09:32:08.828Z,5008
2017-10-02T09:32:38.820Z,5033
2017-10-02T09:33:08.847Z,5030
2017-10-02T09:33:38.947Z,4985
2017-10-02T09:34:08.942Z,4918
2017-10-02T09:34:39.036Z,4855
2017-10-02T09:35:09.005Z,4798
2017-10-02T09:35:39.052Z,4775
2017-10-02T09:36:09.303Z,4770
2017-10-02T09:36:39.142Z,4765
2017-10-02T09:37:09.190Z,4742
2017-10-02T09:37:39.158Z,4790
2017-10-02T09:38:09.245Z,4835
2017-10-02T09:38:39.265Z,5025
2017-10-02T09:39:09.309Z,5198
2017-10-02T09:39:39.360Z,5430
2017-10-02T09:40:09.389Z,5672
2017-10-02T09:40:39.396Z,5875
2017-10-02T09:41:09.529Z,6017
2017-10-02T09:41:39.506Z,6145
2017-10-02T09:42:09.541Z,6245
2017-10-02T09:42:39.562Z,6362
2017-10-02T09:43:09.540Z,6458
2017-10-02T09:43:39.648Z,6533
2017-10-02T09:44:09.663Z,6557
2017-10-02T09:44:39.714Z,6392
2017-10-02T09:45:09.736Z,6200
2017-10-02T09:45:39.738Z,6542
2017-10-02T09:46:10.301Z,6668
2017-10-02T09:46:39.819Z,6695
2017-10-02T09:47:09.869Z,6647
2017-10-02T09:47:39.914Z,6595
2017-10-02T09:48:09.936Z,6557
2017-10-02T09:48:39.983Z,6525
2017-10-02T09:49:09.975Z,6482
2017-10-02T09:49:40.042Z,6427
2017-10-02T09:50:10.046Z,6385
2017-10-02T09:50:40.094Z,6302
2017-10-02T09:51:10.188Z,6170
2017-10-02T09:51:40.186Z,6080
2017-10-02T09:52:10.192Z,5887
2017-10-02T09:52:40.217Z,5705
2017-10-02T09:53:10.214Z,5575
2017-10-02T09:53:40.314Z,5372
2017-10-02T09:54:10.289Z,5140
2017-10-02T09:54:40.337Z,4795
2017-10-02T09:55:10.373Z,4547
2017-10-02T09:55:40.391Z,4457
2017-10-02T09:56:10.755Z,4425
2017-10-02T09:56:40.488Z,4470
2017-10-02T09:57:10.553Z,4445
2017-10-02T09:57:40.535Z,4435
2017-10-02T09:58:10.560Z,4463
2017-10-02T09:58:40.599Z,4400
2017-10-02T09:59:10.657Z,4315
2017-10-02T09:59:40.689Z,4210
2017-10-02T10:00:10.750Z,4118
2017-10-02T10:00:40.748Z,4088
2017-10-02T10:01:40.879Z,4082
2017-10-02T10:02:10.827Z,4075
2017-10-02T10:02:40.882Z,4052
2017-10-02T10:03:10.910Z,3975
2017-10-02T10:03:40.977Z,3887
2017-10-02T10:04:10.967Z,3895
2017-10-02T10:04:41.059Z,3940
2017-10-02T10:05:11.021Z,4035
2017-10-02T10:05:41.062Z,4198
2017-10-02T10:06:11.094Z,4448
2017-10-02T10:06:41.228Z,4750
2017-10-02T10:07:11.209Z,4997
2017-10-02T10:07:41.209Z,5240
2017-10-02T10:08:11.251Z,5585
2017-10-02T10:08:41.331Z,5882
2017-10-02T10:09:11.343Z,6030
2017-10-02T10:09:41.396Z,6005
2017-10-02T10:10:11.415Z,5812
2017-10-02T10:10:41.471Z,5450
2017-10-02T10:11:11.446Z,4945
2017-10-02T10:11:41.593Z,4382
2017-10-02T10:12:11.594Z,3907
2017-10-02T10:12:41.574Z,3550
2017-10-02T10:13:11.626Z,3338
2017-10-02T10:13:41.697Z,3248
2017-10-02T10:14:11.652Z,3268
2017-10-02T10:14:41.751Z,3332
2017-10-02T10:15:11.739Z,3448
2017-10-02T10:15:41.824Z,3628
2017-10-02T10:16:11.811Z,3833
2017-10-02T10:16:41.967Z,3975
2017-10-02T10:17:11.935Z,4050
2017-10-02T10:17:41.958Z,4063
2017-10-02T10:18:12.002Z,4000
2017-10-02T10:18:42.042Z,3965
2017-10-02T10:19:12.070Z,3970
2017-10-02T10:19:42.124Z,4000
2017-10-02T10:20:12.147Z,4052
2017-10-02T10:20:42.148Z,4140
2017-10-02T10:21:12.183Z,4177
2017-10-02T10:21:42.330Z,4205
2017-10-02T10:22:12.281Z,4260
2017-10-02T10:22:42.330Z,4357
2017-10-02T10:23:12.375Z,4390
2017-10-02T10:23:42.342Z,4395
2017-10-02T10:24:12.446Z,4290
2017-10-02T10:24:42.412Z,4127
2017-10-02T10:25:12.450Z,3870
2017-10-02T10:25:42.533Z,3530
2017-10-02T10:26:12.585Z,3155
2017-10-02T10:26:42.678Z,2860
2017-10-02T10:27:12.635Z,2753
2017-10-02T10:27:42.660Z,2720
2017-10-02T10:28:12.687Z,2668
2017-10-02T10:28:42.753Z,2835
2017-10-02T10:29:12.791Z,3115
2017-10-02T10:29:42.815Z,3343
2017-10-02T10:30:12.890Z,3445
2017-10-02T10:30:42.870Z,3322
2017-10-02T10:31:12.917Z,3020
2017-10-02T10:31:42.968Z,2560
2017-10-02T10:32:12.985Z,2180
2017-10-02T10:32:43.036Z,1900
2017-10-02T10:33:13.044Z,1700
2017-10-02T10:33:43.065Z,1590
2017-10-02T10:34:13.098Z,1610
2017-10-02T10:34:43.159Z,1805
2017-10-02T10:35:13.178Z,2100
2017-10-02T10:35:43.177Z,2345
2017-10-02T10:36:13.252Z,2530
2017-10-02T10:36:43.342Z,2792
2017-10-02T10:37:13.318Z,3270
2017-10-02T10:37:43.336Z,3590
2017-10-02T10:38:13.363Z,3475
2017-10-02T10:38:43.420Z,3278
2017-10-02T10:39:13.440Z,3145
2017-10-02T10:39:43.480Z,3148
2017-10-02T10:40:13.470Z,3532
2017-10-02T10:40:43.497Z,4130
2017-10-02T10:41:13.532Z,4655
2017-10-02T10:41:43.594Z,4730
2017-10-02T10:42:13.632Z,4687
2017-10-02T10:42:43.733Z,5198
2017-10-02T10:43:13.765Z,6005
2017-10-02T10:43:43.764Z,6283
2017-10-02T10:44:13.798Z,6080
2017-10-02T10:44:43.882Z,5510
2017-10-02T10:45:13.887Z,4550
2017-10-02T10:45:43.892Z,3662
2017-10-02T10:46:13.934Z,3167
2017-10-02T10:46:44.053Z,2983
2017-10-02T10:47:13.998Z,3190
2017-10-02T10:47:44.024Z,3705
2017-10-02T10:48:14.067Z,4395
2017-10-02T10:48:44.109Z,4990
2017-10-02T10:49:14.193Z,5395
2017-10-02T10:49:44.171Z,5525
2017-10-02T10:50:14.206Z,5447
2017-10-02T10:50:44.260Z,5220
2017-10-02T10:51:14.307Z,4892
2017-10-02T10:51:44.423Z,4555
2017-10-02T10:52:14.372Z,4303
2017-10-02T10:52:44.357Z,4220
2017-10-02T10:53:14.463Z,4307
2017-10-02T10:53:44.472Z,4333
2017-10-02T10:54:14.503Z,4267
2017-10-02T10:54:44.489Z,4165
2017-10-02T10:55:14.600Z,4000
2017-10-02T10:55:44.606Z,3780
2017-10-02T10:56:14.622Z,3527
2017-10-02T10:56:44.732Z,3320
2017-10-02T10:57:14.731Z,3295
2017-10-02T10:57:44.748Z,3482
2017-10-02T10:58:14.768Z,3838
2017-10-02T10:58:44.845Z,4130
2017-10-02T10:59:14.858Z,4255
2017-10-02T10:59:44.898Z,4262
2017-10-02T11:00:14.899Z,4147
2017-10-02T11:00:44.970Z,4123
2017-10-02T11:01:14.959Z,4045
2017-10-02T11:01:45.067Z,3900
2017-10-02T11:02:15.044Z,3808
2017-10-02T11:02:45.069Z,3860
2017-10-02T11:03:15.130Z,4280
2017-10-02T11:03:45.150Z,4862
2017-10-02T11:04:15.122Z,5248
2017-10-02T11:04:45.221Z,5340
2017-10-02T11:05:15.228Z,5237
2017-10-02T11:05:45.262Z,4922
2017-10-02T11:06:15.321Z,4663
2017-10-02T11:06:45.483Z,4468
2017-10-02T11:07:15.364Z,4363
2017-10-02T11:07:45.447Z,4320
2017-10-02T11:08:15.452Z,4352
2017-10-02T11:08:45.496Z,4378
2017-10-02T11:09:15.544Z,4427
2017-10-02T11:09:45.517Z,4567
2017-10-02T11:10:15.592Z,4710
2017-10-02T11:10:45.582Z,4890
2017-10-02T11:11:15.608Z,4930
2017-10-02T11:11:45.696Z,4965
2017-10-02T11:12:15.753Z,5005
2017-10-02T11:12:45.728Z,5147
2017-10-02T11:13:15.795Z,5423
2017-10-02T11:13:45.828Z,5610
2017-10-02T11:14:15.814Z,5765
2017-10-02T11:14:45.921Z,5845
2017-10-02T11:15:15.948Z,5900
2017-10-02T11:15:45.946Z,6008
2017-10-02T11:16:15.972Z,6080
2017-10-02T11:16:46.091Z,5972
2017-10-02T11:17:16.055Z,5708
2017-10-02T11:17:46.117Z,5492
2017-10-02T11:18:16.147Z,5240
2017-10-02T11:18:46.185Z,5083
2017-10-02T11:19:16.217Z,5068
2017-10-02T11:19:46.221Z,5107
2017-10-02T11:20:16.236Z,5150
2017-10-02T11:20:46.332Z,5203
2017-10-02T11:21:16.324Z,5000
2017-10-02T11:21:46.455Z,4605
2017-10-02T11:22:16.419Z,4190
2017-10-02T11:22:46.450Z,3850
2017-10-02T11:23:16.440Z,3620
2017-10-02T11:23:46.509Z,3452
2017-10-02T11:24:16.487Z,3467
2017-10-02T11:24:46.581Z,3520
2017-10-02T11:25:16.545Z,3542
2017-10-02T11:25:46.624Z,3545
2017-10-02T11:26:16.654Z,3495
2017-10-02T11:26:46.701Z,3383
2017-10-02T11:27:16.685Z,3260
2017-10-02T11:27:46.765Z,3200
2017-10-02T11:28:16.740Z,3163
2017-10-02T11:28:46.778Z,3035
2017-10-02T11:29:16.833Z,2867
2017-10-02T11:29:46.868Z,2730
2017-10-02T11:30:16.870Z,2650
2017-10-02T11:30:46.948Z,2588
2017-10-02T11:31:16.944Z,2540
2017-10-02T11:31:47.030Z,2480
2017-10-02T11:32:17.020Z,2400
2017-10-02T11:32:47.056Z,2342
2017-10-02T11:33:17.111Z,2338
2017-10-02T11:33:47.160Z,2425
2017-10-02T11:34:17.153Z,2560
2017-10-02T11:34:47.212Z,2730
2017-10-02T11:35:17.226Z,2845
2017-10-02T11:35:47.297Z,2860
2017-10-02T11:36:17.297Z,2880
2017-10-02T11:36:47.386Z,3020
2017-10-02T11:37:17.378Z,3152
2017-10-02T11:37:47.395Z,3280
2017-10-02T11:38:17.457Z,3338
2017-10-02T11:38:47.513Z,3452
2017-10-02T11:39:17.527Z,3640
2017-10-02T11:39:47.564Z,3838
2017-10-02T11:40:17.612Z,4025
2017-10-02T11:40:47.657Z,4185
2017-10-02T11:41:17.669Z,4305
2017-10-02T11:41:47.747Z,4270
2017-10-02T11:42:17.735Z,4160
2017-10-02T11:42:47.793Z,4147
2017-10-02T11:43:17.816Z,4112
2017-10-02T11:43:47.839Z,4022
2017-10-02T11:44:17.845Z,3945
2017-10-02T11:44:47.958Z,3820
2017-10-02T11:45:17.954Z,3660
2017-10-02T11:45:47.924Z,3563
2017-10-02T11:46:17.994Z,3487
2017-10-02T11:46:48.129Z,3493
2017-10-02T11:47:18.026Z,3613
2017-10-02T11:47:48.113Z,3758
2017-10-02T11:48:18.138Z,3655
2017-10-02T11:48:48.185Z,3412
2017-10-02T11:49:18.195Z,3178
2017-10-02T11:49:48.267Z,3010
2017-10-02T11:50:18.238Z,2970
2017-10-02T11:50:48.333Z,2932
2017-10-02T11:51:18.356Z,2870
2017-10-02T11:51:48.414Z,2820
2017-10-02T11:52:18.402Z,2835
2017-10-02T11:52:48.445Z,2858
2017-10-02T11:53:48.511Z,2790
2017-10-02T11:54:18.510Z,2725
2017-10-02T11:54:48.566Z,2677
2017-10-02T11:55:18.581Z,2725
2017-10-02T11:55:48.651Z,2758
2017-10-02T11:56:18.695Z,2770
2017-10-02T11:56:48.741Z,2745
2017-10-02T11:57:18.782Z,2855
2017-10-02T11:57:48.770Z,2915
2017-10-02T11:58:18.828Z,2800